Portada
METAR-TAF:

METAR-TAF

Aeroports :

Minna, Nigèria

latitud: 9-37N, longitud: 6-32E, altitud: 260 m

Observació

L'informe es va fer fa 29 minuts, a les 11:00 UTC
Vent 7 kt del Nord-Est
Temperatura 31°C
Humitat 15%
Pressió 1013 hPa
Visibilitat 10 km o més
sense núvols per sota de 1500 mi sense presència de cumulonimbus.

METAR: DNMN 241100Z 05007KT CAVOK 31/01 Q1013

Hora: 12:29 (11:29 UTC)

Pronòstic

L'informe es va fer fa 5 hores i 29 minuts, a les 06:00 UTC
Pronòstic vàlid del 24 a les 06 UTC al 25 a les 12 UTC
Vent 10 kt del Nord-Est
Visibilitat 10 km o més
sense núvols per sota de 1500 mi sense presència de cumulonimbus.
Temporalment
l' 24 a les 12 UTC al 24 a les 18 UTC
Vent 10 kt del Sud-Oest

TAF: DNMN 240600Z 2406/2512 04010KT CAVOK TEMPO 2412/2418 22010KT

Observacions i pronòstics meteorològics de més de 4000 aeroports (METAR i TAF).

Les estacions disponibles són els punts grocs i vermells al mapa.

Posi el ratolí al punt desitjat per veure el nom de l'estació.

Feu clic per veure les observacions i els pronòstics meteorològics.

Per canviar el mapa: feu clic els botons verds amb una creu de color negre per apropar; al botó verd amb un guió per allunyar la imatge; o en les fletxes verdes per a mapes adjacents.


METAR-TAF: